Date,TemperatureHighF,TemperatureAvgF,TemperatureLowF,DewpointHighF,DewpointAvgF,DewpointLowF,HumidityHigh,HumidityAvg,HumidityLow,PressureMaxIn,PressureMinIn,WindSpeedMaxMPH,WindSpeedAvgMPH,GustSpeedMaxMPH,PrecipitationSumIn
2013-1-1,15,9,2,12,4,-4,93,79,62,29.69,29.47,18,2,18,0.00
2013-1-2,6,1,-4,-2,-6,-11,78,70,62,29.99,29.68,24,4,29,0.00
2013-1-3,7,1,-4,0,-4,-8,88,78,71,30.04,29.88,14,2,16,0.00
2013-1-4,21,6,-9,20,4,-12,94,89,85,29.88,29.54,3,0,4,0.00
2013-1-5,19,8,-12,18,3,-16,95,77,54,30.22,29.57,29,3,29,0.00
2013-1-6,14,3,-12,10,-1,-16,89,84,70,30.21,29.98,11,0,13,0.00
2013-1-7,7,-2,-13,-2,-8,-17,86,77,54,30.39,30.13,11,1,12,0.00
2013-1-8,34,20,-4,28,15,-8,92,82,77,30.27,30.03,16,2,22,0.01
2013-1-9,33,28,20,30,25,18,97,89,76,30.35,29.66,11,1,15,0.00
2013-1-10,34,30,20,32,25,15,97,81,68,30.48,29.66,24,4,27,0.00
2013-1-11,29,19,6,19,14,4,92,80,64,30.54,30.22,11,1,13,0.00
2013-1-12,36,31,26,33,25,17,91,80,66,30.25,30.00,12,2,16,0.01
2013-1-13,45,38,34,41,36,33,97,93,83,30.06,29.83,8,1,10,0.04
2013-1-14,51,36,22,45,31,13,96,81,54,30.19,29.67,21,3,23,0.00
2013-1-15,24,16,5,13,8,2,88,71,56,30.30,30.19,12,1,12,0.00
2013-1-16,28,16,6,22,12,3,92,84,66,30.20,29.75,11,1,14,0.00
2013-1-17,6,-3,-9,-11,-18,-21,68,49,36,30.21,29.95,17,3,22,0.00
2013-1-18,5,-6,-17,-8,-14,-21,82,67,42,30.27,30.16,13,1,15,0.00
2013-1-19,18,10,-3,14,6,-9,91,83,71,30.24,29.95,7,1,8,0.00
2013-1-20,32,20,2,31,16,-6,96,83,67,29.65,29.25,32,4,32,0.00
2013-1-21,7,0,-9,-5,-8,-12,84,68,54,30.00,29.64,18,2,18,0.00
2013-1-22,2,-11,-24,-9,-17,-28,84,75,54,29.98,29.84,15,1,16,0.00
2013-1-23,-5,-12,-23,-15,-19,-27,83,71,57,29.94,29.82,17,2,20,0.00
2013-1-24,-1,-5,-10,-10,-12,-16,77,71,59,29.97,29.79,19,3,24,0.00
2013-1-25,8,1,-4,-2,-6,-10,79,71,61,30.11,29.97,22,3,24,0.00
2013-1-26,11,3,-4,1,-4,-9,81,71,61,30.06,29.96,14,3,18,0.00
2013-1-27,15,9,1,4,0,-4,83,68,54,30.35,30.06,20,4,20,0.00
2013-1-28,21,7,-2,4,-2,-7,86,68,39,30.36,30.11,8,1,11,0.00
2013-1-29,29,17,-1,17,10,-4,86,75,58,30.22,30.07,10,1,11,0.01
2013-1-30,44,35,24,43,32,15,98,91,67,30.08,29.27,13,2,15,0.07
2013-1-31,51,38,13,51,33,0,99,84,51,29.26,28.53,31,5,35,0.72
2013-2-1,13,8,0,1,-2,-6,75,64,55,29.98,29.19,24,4,28,0.00
2013-2-2,9,0,-6,-4,-7,-12,85,71,49,30.15,29.98,8,1,10,0.00
2013-2-3,19,13,-4,10,7,-7,85,77,65,30.15,29.78,7,1,9,0.00
2013-2-4,20,14,5,13,6,-6,87,72,51,29.78,29.44,18,4,22,0.00
2013-2-5,8,0,-5,-6,-10,-16,82,61,46,30.01,29.63,15,2,18,0.00
2013-2-6,20,6,-4,17,2,-9,90,81,73,30.23,29.85,12,2,15,0.00
2013-2-7,-1,-9,-21,-9,-18,-25,82,66,48,30.66,30.23,16,3,18,0.00
2013-2-8,7,-6,-24,-4,-13,-29,84,71,57,30.68,30.38,6,0,6,0.00
2013-2-9,12,9,4,8,2,-5,84,72,61,30.38,30.15,19,5,21,0.00
2013-2-10,26,13,-2,4,1,-5,85,61,29,30.33,30.18,19,3,19,0.00
2013-2-11,28,14,-6,27,9,-9,95,82,46,30.30,29.57,14,1,15,0.00
2013-2-12,35,31,27,33,29,26,97,91,85,29.62,29.42,12,2,15,0.16
2013-2-13,30,28,25,26,24,22,92,85,76,29.77,29.62,8,1,9,0.01
2013-2-14,33,21,9,23,17,6,93,84,63,29.97,29.75,8,1,9,0.00
2013-2-15,31,23,13,29,21,11,96,90,74,29.99,29.88,9,1,11,0.01
2013-2-16,33,27,22,27,21,12,97,79,60,29.95,29.86,10,1,12,0.01
2013-2-17,21,16,12,14,11,8,88,82,71,29.87,29.15,25,7,30,0.00
2013-2-18,24,18,12,13,10,5,82,71,61,29.86,29.17,27,7,31,0.00
2013-2-19,36,24,13,19,14,8,81,66,46,30.05,29.79,13,2,13,0.01
2013-2-20,32,29,27,31,27,18,98,93,67,29.79,29.36,17,3,20,0.01
2013-2-21,33,30,27,31,27,23,97,91,83,30.24,29.48,19,3,23,0.11
2013-2-22,31,24,8,24,19,6,91,82,71,30.43,30.23,10,2,12,0.05
2013-2-23,26,16,-1,24,14,-4,94,88,82,30.40,30.09,11,1,11,0.00
2013-2-24,29,25,21,26,22,20,95,91,85,30.09,29.91,9,2,12,0.05
2013-2-25,38,23,9,24,18,6,95,81,44,30.25,29.97,5,0,5,0.21
2013-2-26,40,18,-2,27,14,-4,94,83,53,30.39,30.25,6,-3,6,0.02
2013-2-27,40,22,3,25,15,0,92,76,40,30.34,29.98,11,1,13,0.00
2013-2-28,30,28,26,28,24,20,96,86,66,29.98,29.73,15,2,15,0.03
2013-3-1,35,30,26,31,26,24,94,88,78,29.76,29.65,13,2,15,0.17
2013-3-2,34,31,28,32,29,26,96,93,89,29.69,29.63,14,3,15,0.19
2013-3-3,38,34,30,35,32,29,97,92,86,29.64,29.46,10,2,11,0.46
2013-3-4,40,36,33,35,33,31,98,90,73,29.80,29.46,22,2,25,0.19
2013-3-5,40,36,32,34,31,27,90,82,71,30.28,29.80,23,4,27,0.01
2013-3-6,35,33,29,27,23,20,82,68,57,30.41,30.28,15,0,15,0.00
2013-3-7,31,29,27,24,21,19,79,74,69,30.42,30.32,16,4,18,0.00
2013-3-8,44,30,21,24,21,16,91,70,34,30.36,30.30,10,1,11,0.00
2013-3-9,43,28,17,27,22,15,94,81,50,30.41,30.32,5,0,6,0.00
2013-3-10,38,28,16,26,22,15,95,80,60,30.42,30.16,11,2,16,0.00
2013-3-11,48,39,33,34,30,25,82,71,53,30.17,29.99,12,3,15,0.00
2013-3-12,44,41,34,43,38,32,97,89,78,30.03,29.80,14,3,18,0.09
2013-3-13,43,40,33,42,37,25,98,90,66,29.80,29.56,10,1,14,0.35
2013-3-14,37,31,20,28,23,16,93,74,45,29.67,29.49,16,2,19,0.00
2013-3-15,25,19,14,16,11,9,85,72,54,29.70,29.56,11,1,11,0.07
2013-3-16,25,16,4,10,4,-1,91,64,33,29.86,29.63,17,2,17,0.00
2013-3-17,15,9,2,8,0,-9,88,67,41,30.23,29.85,22,4,25,0.00
2013-3-18,24,13,4,2,-3,-9,78,51,30,30.36,30.22,16,3,21,0.00
2013-3-19,27,16,2,17,5,-2,88,65,40,30.36,29.88,15,2,17,0.00
2013-3-20,27,22,16,25,19,14,94,91,87,29.88,29.40,10,2,12,0.00
2013-3-21,32,24,12,25,20,10,93,83,64,29.69,29.46,15,2,17,0.12
2013-3-22,34,21,7,25,17,5,92,83,63,29.67,29.35,17,3,19,0.01
2013-3-23,37,30,25,33,27,23,95,89,79,29.54,29.24,18,4,21,0.27
2013-3-24,41,32,19,32,27,17,95,83,64,29.81,29.55,17,3,19,0.13
2013-3-25,39,32,24,29,26,23,97,79,56,29.80,29.70,11,2,14,0.00
2013-3-26,38,31,20,32,28,18,95,86,74,29.70,29.62,14,3,18,0.00
2013-3-27,44,37,33,38,34,32,97,93,75,29.89,29.66,11,1,12,0.30
2013-3-28,49,40,32,36,31,26,98,75,42,29.92,29.85,11,2,13,0.04
2013-3-29,47,37,26,34,26,16,98,70,31,29.96,29.88,13,2,14,0.01
2013-3-30,46,32,19,24,18,9,94,61,24,30.05,29.96,12,2,13,0.00
2013-3-31,51,35,16,22,17,11,92,55,21,30.07,29.82,15,1,18,0.00
2013-4-1,39,35,31,36,30,21,96,82,49,29.82,29.43,18,2,19,0.19
2013-4-2,31,22,15,24,12,5,84,66,43,29.62,29.45,24,4,25,0.00
2013-4-3,30,22,11,18,11,1,82,64,52,29.80,29.59,22,4,25,0.00
2013-4-4,44,33,22,29,13,5,78,46,23,30.00,29.80,18,4,25,0.00
2013-4-5,41,34,26,34,30,22,96,85,71,29.86,29.65,10,1,13,0.02
2013-4-6,29,23,16,22,8,1,83,55,32,30.28,29.75,24,5,25,0.00
2013-4-7,39,27,10,31,16,6,86,65,39,30.30,29.81,17,3,21,0.01
2013-4-8,40,35,28,33,30,25,91,81,64,30.15,29.78,13,2,13,0.00
2013-4-9,37,32,26,35,30,24,97,93,90,30.16,29.91,8,1,10,0.05
2013-4-10,44,37,32,35,30,17,98,78,49,29.94,29.86,14,2,16,0.03
2013-4-11,35,30,24,19,13,8,71,49,38,30.21,29.91,20,4,22,0.00
2013-4-12,41,30,19,31,22,15,97,73,43,30.27,30.02,13,1,16,0.00
2013-4-13,38,34,31,34,32,30,97,92,83,30.03,29.83,8,1,8,0.27
2013-4-14,40,35,32,35,33,31,97,92,79,30.17,29.89,8,1,8,0.13
2013-4-15,50,39,32,36,32,30,98,77,47,30.36,30.17,7,1,9,0.01
2013-4-16,46,41,35,44,37,30,97,85,71,30.31,29.72,17,3,19,0.09
2013-4-17,46,41,31,40,26,17,91,59,33,30.37,29.78,26,5,30,0.08
2013-4-18,46,36,24,33,23,16,89,64,32,30.47,29.91,15,2,16,0.06
2013-4-19,70,54,40,54,43,29,88,67,51,29.91,29.42,15,3,20,0.00
2013-4-20,58,45,34,55,39,27,95,79,48,30.01,29.41,20,3,24,0.20
2013-4-21,40,32,25,32,14,3,93,50,23,30.73,30.02,15,4,19,0.01
2013-4-22,53,36,18,24,16,10,92,53,18,30.83,30.61,14,2,18,0.00
2013-4-23,54,42,25,34,20,10,91,49,18,30.62,30.28,15,3,23,0.00
2013-4-24,55,47,39,50,43,34,98,86,65,30.27,29.67,14,2,14,0.03
2013-4-25,53,47,31,49,37,26,97,70,39,30.32,29.60,19,4,23,0.04
2013-4-26,57,41,25,30,24,14,96,59,18,30.48,30.32,9,1,10,0.00
2013-4-27,62,43,25,32,26,20,95,58,21,30.45,30.26,10,1,11,0.00
2013-4-28,68,47,27,35,30,25,94,58,23,30.34,30.17,10,1,12,0.00
2013-4-29,70,52,30,38,32,28,94,55,22,30.27,30.13,13,2,15,0.00
2013-4-30,73,54,32,40,34,29,92,54,21,30.33,30.22,11,1,14,0.00
2013-5-1,77,57,38,46,40,33,92,59,22,30.43,30.33,9,1,9,0.00
2013-5-2,68,56,42,43,36,20,79,51,20,30.57,30.40,16,3,18,0.00
2013-5-3,69,51,32,40,35,29,93,59,28,30.61,30.38,10,1,11,0.00
2013-5-4,75,54,32,39,35,30,94,54,22,30.41,30.18,8,1,11,0.00
2013-5-5,83,62,36,45,38,33,91,49,17,30.20,30.02,11,1,12,0.00
2013-5-6,83,67,48,45,40,34,76,42,18,30.11,29.92,15,2,18,0.00
2013-5-7,83,66,47,44,39,31,76,44,17,30.09,29.90,17,2,19,0.00
2013-5-8,83,64,40,49,43,35,92,53,19,30.19,30.01,18,2,22,0.00
2013-5-9,66,60,51,60,55,48,95,84,68,30.06,29.83,14,2,15,0.02
2013-5-10,58,53,46,56,49,43,97,86,64,30.01,29.83,14,2,16,0.02
2013-5-11,54,51,46,54,49,43,98,95,90,30.00,29.58,18,3,18,0.43
2013-5-12,62,53,44,54,49,42,99,87,58,29.65,29.49,10,1,11,0.22
2013-5-13,51,43,35,42,32,27,93,67,43,29.96,29.58,20,3,23,0.02
2013-5-14,50,41,29,36,32,28,97,72,47,30.01,29.94,10,1,12,0.00
2013-5-15,63,48,30,35,30,23,94,57,22,29.95,29.62,16,2,19,0.00
2013-5-16,53,47,41,50,44,35,98,90,56,29.77,29.50,12,2,16,0.20
2013-5-17,53,46,41,40,38,34,88,74,51,30.22,29.77,16,4,17,0.01
2013-5-18,58,45,30,36,32,28,97,65,34,30.36,30.22,10,1,10,0.00
2013-5-19,64,48,29,39,32,22,97,62,22,30.41,30.14,10,1,11,0.00
2013-5-20,56,51,46,54,48,38,98,91,60,30.14,29.92,14,2,15,0.19
2013-5-21,65,52,47,51,48,45,100,89,51,30.04,29.96,8,0,9,0.00
2013-5-22,53,50,46,50,49,44,97,94,86,29.99,29.86,16,3,21,0.03
2013-5-23,61,54,48,60,53,47,99,96,89,29.86,29.69,16,3,17,0.40
2013-5-24,57,49,45,56,48,44,98,95,90,29.99,29.70,19,3,19,0.60
2013-5-25,45,43,40,44,41,38,98,93,80,30.08,29.89,13,2,15,0.79
2013-5-26,49,44,41,48,42,39,98,94,87,29.91,29.75,15,3,19,0.57
2013-5-27,53,44,36,40,37,34,94,77,53,30.13,29.83,18,4,21,0.02
2013-5-28,70,50,32,43,36,30,99,66,27,30.24,30.13,9,1,10,0.00
2013-5-29,72,56,36,55,43,34,97,70,26,30.21,29.92,19,3,21,0.12
2013-5-30,75,62,53,62,57,52,99,84,56,29.93,29.87,9,1,13,0.15
2013-5-31,87,69,56,74,63,54,98,84,47,29.93,29.72,23,1,25,0.83
2013-6-1,76,66,53,69,62,51,99,89,70,29.85,29.73,13,1,14,0.30
2013-6-2,75,63,52,69,62,51,99,95,79,29.74,29.56,11,1,12,1.27
2013-6-3,76,67,54,65,56,46,99,72,43,29.68,29.60,16,2,19,0.05
2013-6-4,60,53,46,46,41,32,92,66,43,29.95,29.65,21,3,24,0.03
2013-6-5,64,53,42,38,34,27,80,52,25,30.09,29.94,20,3,20,0.00
2013-6-6,70,53,34,44,36,28,96,59,22,30.19,30.09,12,1,13,0.00
2013-6-7,64,56,46,54,49,43,93,79,57,30.15,30.03,8,1,10,0.00
2013-6-8,57,53,49,54,50,45,95,88,78,30.04,29.85,13,1,15,0.44
2013-6-9,57,51,46,51,48,44,97,89,79,30.14,29.99,9,0,9,0.05
2013-6-10,78,59,42,56,49,41,99,74,36,30.17,29.97,9,1,10,0.00
2013-6-11,66,58,49,58,54,48,98,88,67,29.98,29.73,6,0,7,0.08
2013-6-12,70,60,51,59,50,39,98,75,33,29.78,29.69,12,1,15,0.21
2013-6-13,73,58,41,49,44,39,96,63,32,29.83,29.68,12,1,16,0.00
2013-6-14,77,61,45,59,50,44,97,71,36,29.71,29.58,14,2,16,0.03
2013-6-15,69,58,44,49,44,36,96,63,34,29.75,29.65,17,2,24,0.00
2013-6-16,65,52,38,51,40,27,97,68,27,29.86,29.75,8,1,12,0.20
2013-6-17,63,55,50,58,53,49,98,93,83,29.79,29.71,7,0,8,0.14
2013-6-18,66,55,46,52,49,43,97,80,46,29.93,29.79,10,1,13,0.03
2013-6-19,70,55,40,50,44,40,99,71,35,30.09,29.92,11,2,14,0.01
2013-6-20,75,59,40,53,43,38,97,62,30,30.17,30.08,13,1,14,0.00
2013-6-21,73,62,47,54,46,36,89,60,31,30.17,30.08,16,2,17,0.00
2013-6-22,78,59,40,61,50,38,95,76,51,30.17,29.99,18,1,18,0.00
2013-6-23,79,67,53,65,59,52,98,78,51,30.09,29.85,14,2,15,0.00
2013-6-24,81,71,58,67,63,57,98,78,54,29.86,29.67,9,1,13,0.00
2013-6-25,86,70,59,70,64,56,98,82,49,29.76,29.56,21,2,26,0.37
2013-6-26,61,57,52,57,53,50,96,88,78,29.89,29.71,11,2,13,0.35
2013-6-27,55,51,48,53,50,47,97,94,88,29.98,29.83,12,1,14,0.85
2013-6-28,54,52,49,53,50,48,98,95,92,29.96,29.66,16,1,16,0.63
2013-6-29,65,58,53,63,58,52,99,98,95,29.66,29.55,6,0,7,0.62
2013-6-30,76,66,57,64,60,56,100,84,56,29.89,29.62,14,2,16,0.05
2013-7-1,75,64,53,62,52,38,99,71,29,30.18,29.89,12,1,13,0.00
2013-7-2,73,62,51,55,50,43,95,69,38,30.27,30.15,10,1,14,0.00
2013-7-3,83,69,56,68,60,53,94,74,46,30.15,29.97,11,1,11,0.00
2013-7-4,89,76,63,69,64,61,97,70,41,30.06,29.91,12,2,16,0.00
2013-7-5,88,78,69,70,66,57,90,68,36,29.94,29.85,17,2,17,0.00
2013-7-6,88,76,65,69,65,61,96,72,44,29.90,29.75,10,1,14,0.00
2013-7-7,80,73,62,68,55,32,87,59,20,29.93,29.77,14,2,16,0.00
2013-7-8,76,64,52,51,48,41,88,58,30,30.08,29.93,9,1,13,0.00
2013-7-9,76,62,47,63,54,45,95,76,52,30.13,29.99,5,0,8,0.00
2013-7-10,76,68,60,66,63,58,96,85,72,29.99,29.66,18,2,18,0.00
2013-7-11,77,69,57,66,60,50,97,75,49,30.00,29.59,14,3,16,0.00
2013-7-12,81,63,46,56,50,44,97,68,31,30.20,30.00,7,1,8,0.00
2013-7-13,88,67,47,58,52,46,97,65,25,30.27,30.15,8,1,10,0.00
2013-7-14,92,72,52,64,58,50,96,67,29,30.22,30.09,9,1,13,0.00
2013-7-15,92,76,60,67,62,58,94,66,32,30.11,29.99,15,2,18,0.00
2013-7-16,86,75,59,66,59,50,91,62,32,30.15,30.07,9,1,13,0.00
2013-7-17,87,68,53,75,63,51,97,86,62,30.14,29.83,12,1,12,0.22
2013-7-18,80,70,59,65,57,49,98,67,41,29.97,29.88,13,1,13,0.03
2013-7-19,80,68,58,73,65,54,98,90,77,29.92,29.43,14,1,16,0.27
2013-7-20,78,72,57,69,64,51,87,77,54,29.73,29.44,14,2,16,0.02
2013-7-21,68,59,48,52,45,40,91,63,39,29.99,29.73,14,2,16,0.00
2013-7-22,78,60,43,56,48,41,98,69,32,30.03,29.86,8,1,11,0.00
2013-7-23,69,62,54,64,59,52,98,91,71,29.87,29.53,9,1,11,0.48
2013-7-24,76,64,52,68,58,48,99,84,49,29.95,29.49,15,2,17,0.24
2013-7-25,75,59,45,56,50,44,97,73,43,30.15,29.95,7,1,9,0.00
2013-7-26,66,59,52,60,56,50,96,90,73,30.15,29.96,10,1,10,0.23
2013-7-27,73,64,57,62,59,55,96,85,66,30.03,29.90,21,3,21,0.10
2013-7-28,77,66,55,64,59,54,99,81,58,30.09,30.01,14,1,15,0.00
2013-7-29,68,63,59,64,61,58,98,93,85,30.03,29.98,7,1,9,0.01
2013-7-30,74,64,55,65,60,54,99,88,62,30.02,29.92,10,1,13,0.14
2013-7-31,78,64,51,61,56,50,99,77,45,29.98,29.92,15,1,19,0.00
2013-8-1,82,67,51,65,57,50,99,75,44,29.99,29.83,11,1,14,0.00
2013-8-2,70,62,58,65,60,57,98,93,76,29.83,29.67,8,1,13,0.70
2013-8-3,66,60,53,62,58,52,100,92,76,29.72,29.64,11,0,11,0.08
2013-8-4,73,60,53,61,56,52,99,88,56,29.74,29.65,11,1,16,0.08
2013-8-5,65,58,50,56,53,47,98,86,66,29.88,29.72,13,2,20,0.21
2013-8-6,76,61,44,58,51,43,98,74,44,30.09,29.88,15,1,15,0.01
2013-8-7,79,63,50,66,56,49,99,81,41,30.16,30.04,13,1,15,0.04
2013-8-8,65,60,53,62,58,51,98,93,90,30.05,29.96,8,1,13,0.27
2013-8-9,68,65,63,67,64,62,99,97,95,29.98,29.66,8,0,9,0.07
2013-8-10,68,64,52,65,56,49,99,76,56,29.83,29.60,21,3,25,0.01
2013-8-11,76,62,49,59,52,47,95,73,40,29.88,29.81,14,1,19,0.00
2013-8-12,74,62,52,63,57,51,98,84,55,29.88,29.79,16,1,16,0.05
2013-8-13,66,58,51,62,57,51,100,95,78,29.87,29.68,9,0,10,0.07
2013-8-14,69,60,53,63,56,49,99,87,68,29.69,29.53,16,2,19,0.06
2013-8-15,72,60,50,57,52,47,95,77,49,29.96,29.68,14,2,15,0.01
2013-8-16,72,60,49,59,54,48,98,84,46,30.15,29.96,14,1,16,0.01
2013-8-17,74,60,48,56,51,47,98,77,41,30.23,30.14,12,1,12,0.01
2013-8-18,80,64,45,59,53,44,98,71,41,30.20,29.89,15,2,16,0.00
2013-8-19,77,67,58,63,59,55,94,76,55,29.89,29.78,18,1,20,0.00
2013-8-20,79,66,57,69,63,56,99,91,68,30.00,29.87,7,0,8,0.22
2013-8-21,86,72,58,70,64,58,100,79,49,30.00,29.83,15,2,18,0.01
2013-8-22,79,69,61,68,64,60,98,85,69,29.83,29.72,12,1,15,0.37
2013-8-23,66,59,46,61,51,43,98,77,45,30.12,29.72,16,3,18,0.52
2013-8-24,76,57,42,54,47,41,98,74,33,30.26,30.12,9,1,10,0.00
2013-8-25,80,61,43,60,52,42,98,75,40,30.30,30.04,6,1,7,0.00
2013-8-26,72,63,57,66,60,55,98,91,77,30.04,29.76,8,0,11,0.05
2013-8-27,76,66,57,64,60,56,100,83,57,29.89,29.80,9,1,9,0.01
2013-8-28,73,64,56,66,60,55,99,89,70,30.09,29.86,8,0,10,0.37
2013-8-29,68,58,48,57,51,46,94,78,58,30.22,30.04,9,1,10,0.00
2013-8-30,73,57,42,63,53,42,99,86,66,30.04,29.73,9,1,9,0.01
2013-8-31,76,66,58,64,61,58,100,85,57,29.82,29.73,7,0,9,0.02
2013-9-1,75,66,58,63,59,55,96,79,55,30.00,29.76,12,1,13,0.01
2013-9-2,62,58,53,59,55,52,97,90,80,30.06,29.83,12,2,14,0.64
2013-9-3,74,62,53,66,59,52,99,90,71,29.83,29.62,8,0,9,0.12
2013-9-4,73,60,43,59,53,42,98,80,55,29.84,29.60,20,2,20,0.00
2013-9-5,58,48,39,44,39,33,96,74,41,30.04,29.84,14,1,15,0.00
2013-9-6,66,51,34,45,39,33,97,67,35,30.06,29.85,15,2,16,0.00
2013-9-7,66,59,52,58,53,45,97,78,67,29.85,29.65,16,2,20,0.07
2013-9-8,59,50,39,58,45,38,98,82,53,29.91,29.63,22,3,22,0.17
2013-9-9,68,53,36,46,41,35,98,68,35,30.03,29.87,18,2,18,0.01
2013-9-10,71,59,51,57,52,46,95,76,51,30.03,29.94,9,1,11,0.02
2013-9-11,76,65,58,73,63,56,99,96,81,29.98,29.78,8,0,9,0.34
2013-9-12,68,64,59,68,64,59,100,99,96,29.85,29.55,5,0,6,0.32
2013-9-13,63,61,58,63,58,53,100,89,79,29.75,29.53,14,2,15,0.01
2013-9-14,58,50,45,54,48,44,98,93,86,29.92,29.72,11,2,13,0.30
2013-9-15,64,54,44,54,49,44,100,84,57,29.96,29.85,13,1,14,0.01
2013-9-16,55,46,38,53,40,32,96,79,57,30.18,29.86,19,3,19,0.24
2013-9-17,64,48,32,45,39,31,98,73,40,30.29,30.14,12,1,14,0.00
2013-9-18,71,53,38,48,43,37,97,72,31,30.14,29.96,12,1,15,0.00
2013-9-19,75,57,42,56,49,41,98,78,38,30.02,29.92,12,1,13,0.00
2013-9-20,65,58,52,59,55,51,96,89,79,30.07,29.96,12,1,16,0.00
2013-9-21,73,63,55,57,53,48,92,73,42,29.97,29.65,20,4,24,0.00
2013-9-22,68,60,49,62,57,44,97,89,75,29.68,29.48,17,2,21,0.69
2013-9-23,49,46,43,44,43,42,95,90,84,29.78,29.66,14,4,21,0.55
2013-9-24,51,47,42,46,44,41,94,89,81,29.84,29.72,14,4,20,0.07
2013-9-25,54,49,45,48,45,42,93,86,76,29.96,29.83,16,3,16,0.02
2013-9-26,57,52,45,51,48,43,96,87,78,30.14,29.96,11,2,12,0.00
2013-9-27,68,55,44,54,48,42,98,82,51,30.25,30.13,12,1,14,0.00
2013-9-28,76,55,41,56,48,40,99,83,44,30.31,30.18,10,1,10,0.00
2013-9-29,76,55,40,55,47,39,99,79,36,30.18,30.03,8,1,9,0.01
2013-9-30,75,54,42,55,47,40,99,82,43,30.08,29.95,9,0,13,0.00
2013-10-1,76,54,42,56,46,41,99,79,32,29.97,29.76,8,0,8,0.01
2013-10-2,73,58,44,58,47,43,98,71,37,29.77,29.58,16,2,16,0.00
2013-10-3,66,55,42,46,42,39,92,65,41,29.94,29.76,16,2,21,0.00
2013-10-4,58,46,36,41,36,31,97,73,44,30.09,29.93,16,2,16,0.00
2013-10-5,57,42,32,40,34,30,98,75,40,30.19,30.04,14,1,16,0.00
2013-10-6,58,42,28,40,34,27,97,74,41,30.27,30.11,9,1,9,0.01
2013-10-7,66,53,44,63,50,39,96,90,71,30.12,29.60,19,5,25,0.24
2013-10-8,56,50,35,53,40,33,93,71,45,30.30,29.67,18,2,24,0.28
2013-10-9,66,46,30,44,38,29,97,76,40,30.40,30.22,12,1,13,0.00
2013-10-10,73,53,38,51,44,36,94,75,43,30.23,30.11,11,1,11,0.00
2013-10-11,71,54,39,55,47,39,98,80,55,30.26,30.13,8,1,9,0.00
2013-10-12,58,47,36,47,43,35,97,86,62,30.39,30.26,7,0,7,0.00
2013-10-13,61,45,36,48,41,35,99,89,61,30.43,30.27,7,0,8,0.01
2013-10-14,52,44,35,51,44,34,99,98,95,30.28,30.15,5,0,5,0.09
2013-10-15,59,48,36,51,42,35,99,83,47,30.28,30.18,5,0,6,0.03
2013-10-16,57,48,34,52,45,33,97,90,76,30.18,29.85,15,2,15,0.00
2013-10-17,62,55,50,55,51,47,98,88,65,29.85,29.66,15,1,16,0.09
2013-10-18,55,49,44,52,47,43,99,95,87,29.69,29.56,6,0,8,0.20
2013-10-19,57,48,41,46,41,38,96,78,52,29.79,29.63,16,2,21,0.00
2013-10-20,51,46,41,47,41,35,98,84,58,29.73,29.56,19,2,19,0.25
2013-10-21,55,44,37,40,37,34,94,76,52,29.94,29.73,11,1,14,0.01
2013-10-22,52,45,37,49,43,35,97,93,87,29.91,29.57,12,2,16,0.22
2013-10-23,45,36,29,36,32,28,98,85,61,29.66,29.52,11,1,15,0.01
2013-10-24,41,35,28,33,29,24,97,79,55,29.56,29.45,20,2,20,0.00
2013-10-25,44,38,31,36,33,29,94,82,64,29.91,29.56,16,1,18,0.02
2013-10-26,42,34,26,35,29,25,97,83,51,29.95,29.75,13,2,16,0.02
2013-10-27,44,39,36,39,36,34,95,90,79,29.81,29.67,13,1,13,0.03
2013-10-28,36,32,26,34,30,24,96,91,79,30.24,29.81,13,1,13,0.17
2013-10-29,35,28,22,27,23,20,95,84,61,30.34,30.23,12,1,12,0.02
2013-10-30,40,28,20,27,23,18,94,82,55,30.27,30.03,13,1,13,0.01
2013-10-31,44,34,22,44,30,21,98,89,73,30.12,29.58,12,2,12,0.16
2013-11-1,64,55,44,60,51,40,99,87,60,29.58,29.02,29,4,30,0.27
2013-11-2,49,40,31,40,32,19,95,76,57,29.84,29.31,16,2,20,0.00
2013-11-3,36,29,22,20,18,14,82,63,44,30.35,29.83,17,2,21,0.00
2013-11-4,37,27,17,20,18,15,92,72,48,30.66,30.35,13,2,14,0.00
2013-11-5,40,28,17,26,21,15,93,74,46,30.67,30.35,12,1,14,0.00
2013-11-6,54,42,33,42,34,26,86,73,54,30.35,29.73,14,2,14,0.00
2013-11-7,55,44,30,50,40,25,97,85,65,29.74,29.48,13,2,14,0.14
2013-11-8,39,34,29,29,27,22,88,75,53,29.71,29.60,18,2,21,0.00
2013-11-9,34,32,29,28,23,21,86,70,61,30.01,29.70,19,3,19,0.00
2013-11-10,31,30,26,30,27,22,96,89,78,30.00,29.66,11,1,13,0.01
2013-11-11,34,32,30,30,29,27,95,88,78,29.87,29.67,9,1,15,0.04
2013-11-12,32,26,20,31,21,15,96,82,65,29.87,29.65,20,3,22,0.01
2013-11-13,30,24,19,18,15,13,84,69,50,30.02,29.84,18,3,24,0.00
2013-11-14,36,32,23,30,26,17,85,79,76,29.91,29.75,14,1,16,0.01
2013-11-15,47,39,34,33,32,30,88,76,57,30.11,29.91,11,1,12,0.00
2013-11-16,50,37,26,35,31,24,95,81,51,30.29,30.11,5,0,5,0.00
2013-11-17,50,36,22,40,31,21,97,85,54,30.30,29.92,16,2,16,0.18
2013-11-18,53,46,41,50,42,32,98,86,63,29.93,29.29,19,4,24,0.77
2013-11-19,42,33,27,33,22,11,78,64,51,30.02,29.38,23,5,32,0.00
2013-11-20,30,25,21,14,9,3,72,51,34,30.55,30.02,24,5,32,0.00
2013-11-21,44,26,16,21,17,12,88,71,35,30.54,30.26,9,0,9,0.00
2013-11-22,38,30,23,30,23,17,95,76,42,30.27,29.64,4,0,5,0.00
2013-11-23,32,28,18,32,22,11,97,79,63,29.64,29.42,22,3,23,0.01
2013-11-24,18,17,16,14,11,8,85,76,68,29.65,29.38,24,6,33,0.00
2013-11-25,21,17,14,14,8,5,85,67,50,30.12,29.65,20,3,23,0.00
2013-11-26,34,26,17,25,21,13,89,82,69,30.21,30.07,11,2,16,0.03
2013-11-27,44,35,26,44,34,22,99,95,80,30.15,29.10,12,2,12,0.62
2013-11-28,34,23,14,33,19,9,96,84,75,30.16,29.14,21,3,26,0.19
2013-11-29,20,13,8,12,8,5,91,80,60,30.59,30.16,14,2,16,0.00
2013-11-30,20,13,4,14,8,2,91,81,58,30.69,30.32,7,1,9,0.00
2013-12-1,29,24,18,23,20,14,91,84,73,30.32,30.16,5,0,6,0.00
2013-12-2,30,26,20,29,24,18,97,93,90,30.17,29.94,5,0,6,0.00
2013-12-3,34,32,30,33,31,29,98,97,93,29.94,29.82,10,0,12,0.07
2013-12-4,33,32,28,31,28,25,93,87,82,30.15,29.80,17,5,21,0.04
2013-12-5,38,30,26,37,28,24,97,92,86,30.20,29.75,13,2,18,0.10
2013-12-6,41,36,28,40,29,14,98,77,56,29.95,29.72,17,2,21,0.15
2013-12-7,28,21,13,15,11,9,86,66,51,30.19,29.95,14,2,18,0.00
2013-12-8,20,12,2,10,6,-1,90,77,53,30.51,30.19,13,1,15,0.00
2013-12-9,17,9,0,15,6,-3,91,88,81,30.50,29.71,12,1,13,0.00
2013-12-10,28,18,4,24,14,1,94,85,61,29.71,29.61,16,2,18,0.02
2013-12-11,20,8,-5,10,2,-9,91,80,60,29.99,29.70,18,2,21,0.00
2013-12-12,2,-4,-13,-5,-10,-17,86,78,62,30.12,29.83,13,-3,13,0.00
2013-12-13,6,-1,-11,0,-6,-16,86,77,64,30.25,29.72,17,2,17,0.00
2013-12-14,5,-7,-16,-6,-13,-20,85,77,57,30.53,30.25,10,1,10,0.00
2013-12-15,13,5,-4,10,2,-8,89,85,76,30.45,29.52,11,1,12,0.00
2013-12-16,12,7,-3,8,3,-7,90,85,80,30.02,29.51,12,2,14,0.00
2013-12-17,10,-2,-11,3,-6,-14,87,83,75,30.22,30.02,9,-3,11,0.01
2013-12-18,17,5,0,12,2,-3,90,86,79,30.11,29.75,4,0,5,0.00
2013-12-19,17,12,3,14,9,0,92,89,82,30.03,29.75,6,0,6,0.00
2013-12-20,12,9,6,8,6,2,89,86,81,30.15,30.00,6,0,7,0.00
2013-12-21,16,14,10,14,11,7,91,89,86,30.08,29.83,9,1,10,0.00
2013-12-22,15,14,12,13,11,9,91,88,83,30.16,30.05,15,2,15,0.00
2013-12-23,20,16,13,18,14,10,93,92,88,30.13,29.98,8,0,8,0.00
2013-12-24,20,15,12,18,12,8,93,87,81,30.08,29.99,12,2,12,0.00
2013-12-25,12,3,-10,8,-1,-14,88,82,67,30.45,30.06,10,2,11,0.00
2013-12-26,11,3,-9,9,0,-12,90,87,84,30.43,30.05,7,1,8,0.00
2013-12-27,20,5,-9,16,2,-12,91,88,83,30.06,29.95,4,0,5,0.00
2013-12-28,29,17,-2,26,14,-5,92,89,76,29.99,29.72,16,1,18,0.00
2013-12-29,17,7,4,11,2,-4,89,81,69,30.14,29.65,14,2,14,0.00
2013-12-30,16,9,-5,13,5,-11,91,84,74,30.04,29.51,13,1,17,0.00
2013-12-31,1,-4,-8,-6,-9,-12,85,78,68,30.08,29.96,7,1,11,0.00
2014-1-1,4,-9,-20,-2,-14,-24,85,79,67,30.38,29.96,12,1,12,0.00
2014-1-2,-13,-20,-31,-21,-26,-36,79,72,60,30.47,30.19,5,-6,6,0.00